Time;durP1;ratioP1;P1;durP2;ratioP2;P2;SDS_P1;SDS_P2;PMS_P1;PMS_P2;Temp;Humidity;BMP_temperature;BMP_pressure;BME280_temperature;BME280_humidity;BME280_pressure;Samples;Min_cycle;Max_cycle;Signal;HPM_P1;HPM_P2
2021/12/26 00:02:01;;;;;;;11.40;2.92;;;23.80;99.90;;;;;;5094803;28;20020;-72
2021/12/26 00:04:30;;;;;;;15.77;3.08;;;23.70;99.90;;;;;;5094282;28;20384;-76
2021/12/26 00:06:58;;;;;;;10.55;3.50;;;23.80;99.90;;;;;;5094733;28;20480;-73
2021/12/26 00:09:26;;;;;;;7.70;3.08;;;23.80;99.90;;;;;;5094567;28;20032;-73
2021/12/26 00:11:54;;;;;;;18.05;4.00;;;23.80;99.90;;;;;;5093818;28;20012;-72
2021/12/26 00:14:22;;;;;;;18.77;3.47;;;23.70;99.90;;;;;;5094636;28;20026;-73
2021/12/26 00:16:49;;;;;;;14.90;3.58;;;23.70;99.90;;;;;;5093216;28;20445;-72
2021/12/26 00:19:17;;;;;;;10.30;3.35;;;23.70;99.90;;;;;;5093413;28;20461;-74
2021/12/26 00:21:45;;;;;;;15.20;3.88;;;24.10;99.90;;;;;;5092094;28;20165;-73
2021/12/26 00:24:13;;;;;;;13.52;3.22;;;24.10;99.90;;;;;;5090028;28;20032;-78
2021/12/26 00:26:41;;;;;;;13.38;3.13;;;24.60;99.90;;;;;;5094308;28;20557;-73
2021/12/26 00:29:09;;;;;;;11.98;2.97;;;24.90;99.90;;;;;;5093958;28;20024;-73
2021/12/26 00:31:37;;;;;;;10.52;3.65;;;25.00;99.90;;;;;;5094289;28;20024;-74
2021/12/26 00:34:06;;;;;;;14.40;4.18;;;24.90;99.90;;;;;;5093986;28;20074;-73
2021/12/26 00:36:34;;;;;;;7.85;2.85;;;25.10;99.90;;;;;;5091922;28;20016;-72
2021/12/26 00:39:03;;;;;;;13.32;3.15;;;25.00;99.90;;;;;;5093805;28;20492;-76
2021/12/26 00:41:31;;;;;;;10.07;2.47;;;24.70;99.90;;;;;;5094057;28;20020;-73
2021/12/26 00:43:58;;;;;;;12.77;3.63;;;24.80;99.90;;;;;;5093312;28;20034;-73
2021/12/26 00:46:26;;;;;;;10.63;3.42;;;24.90;99.90;;;;;;5093820;28;20038;-73
2021/12/26 00:48:54;;;;;;;12.55;3.83;;;24.70;99.90;;;;;;5093898;28;20024;-74
2021/12/26 00:51:21;;;;;;;18.35;3.67;;;24.80;99.90;;;;;;5093908;28;20048;-75
2021/12/26 00:53:49;;;;;;;15.57;3.47;;;24.60;99.90;;;;;;5093674;28;20678;-74
2021/12/26 00:56:19;;;;;;;11.70;2.45;;;24.50;99.90;;;;;;5093774;28;20502;-73
2021/12/26 00:58:48;;;;;;;11.93;2.35;;;24.30;99.90;;;;;;5093146;28;20476;-74
2021/12/26 01:01:17;;;;;;;9.93;2.63;;;24.70;99.90;;;;;;5075926;28;20389;-73
2021/12/26 01:26:06;;;;;;;11.68;2.80;;;24.90;99.90;;;;;;5527142;22;19921;-71
2021/12/26 01:28:34;;;;;;;17.90;3.85;;;25.00;99.90;;;;;;4977509;28;20030;-70
2021/12/26 01:31:02;;;;;;;7.88;2.50;;;24.70;99.90;;;;;;4978402;28;20110;-70
2021/12/26 01:33:30;;;;;;;7.97;2.13;;;24.50;99.90;;;;;;4988794;28;20030;-70
2021/12/26 01:35:58;;;;;;;10.55;2.53;;;24.60;99.90;;;;;;4976168;28;20035;-69
2021/12/26 01:38:25;;;;;;;7.93;3.30;;;24.60;99.90;;;;;;4975218;28;20483;-70
2021/12/26 01:40:57;;;;;;;19.55;3.28;;;24.60;99.90;;;;;;4972635;28;20027;-70
2021/12/26 01:43:31;;;;;;;7.97;2.58;;;24.60;99.90;;;;;;4987369;28;20058;-68
2021/12/26 01:45:59;;;;;;;9.90;2.70;;;24.70;99.90;;;;;;4971711;28;20070;-70
2021/12/26 01:48:27;;;;;;;9.02;3.20;;;25.00;99.90;;;;;;4971831;28;20027;-70
2021/12/26 01:50:55;;;;;;;7.50;2.28;;;25.20;99.90;;;;;;4971826;28;20055;-70
2021/12/26 01:53:34;;;;;;;11.23;2.70;;;25.70;99.90;;;;;;4972017;28;20023;-71
2021/12/26 01:56:04;;;;;;;6.78;2.60;;;25.90;99.90;;;;;;4980538;28;20058;-69
2021/12/26 01:58:33;;;;;;;9.55;2.65;;;25.60;99.90;;;;;;4992265;28;20069;-70
2021/12/26 02:01:04;;;;;;;7.20;2.42;;;25.60;99.90;;;;;;4992217;28;20026;-70
2021/12/26 02:03:32;;;;;;;11.65;2.95;;;25.90;99.90;;;;;;4993340;28;20019;-70
2021/12/26 02:05:59;;;;;;;10.05;2.40;;;25.80;99.90;;;;;;4991903;28;20034;-70
2021/12/26 02:08:27;;;;;;;6.85;2.20;;;25.60;99.90;;;;;;4993188;28;20094;-70
2021/12/26 02:10:59;;;;;;;8.30;2.33;;;25.20;99.90;;;;;;4993957;28;20088;-71
2021/12/26 02:13:27;;;;;;;13.57;3.17;;;25.20;99.90;;;;;;4992976;28;20026;-72
2021/12/26 02:15:55;;;;;;;8.25;2.30;;;25.20;99.90;;;;;;4992054;28;20027;-71
2021/12/26 02:18:23;;;;;;;6.68;1.95;;;25.30;99.90;;;;;;4993966;28;20027;-71
2021/12/26 02:23:29;;;;;;;7.20;2.22;;;25.10;99.90;;;;;;4997762;28;20022;-71
2021/12/26 02:28:28;;;;;;;16.33;4.10;;;24.80;99.90;;;;;;4997786;28;20038;-71
2021/12/26 02:30:58;;;;;;;11.07;2.60;;;25.00;99.90;;;;;;4997576;28;20105;-71
2021/12/26 02:33:25;;;;;;;8.50;2.20;;;25.20;99.90;;;;;;4994573;28;20466;-71
2021/12/26 02:35:53;;;;;;;7.75;2.45;;;25.20;99.90;;;;;;4994249;28;20022;-71
2021/12/26 02:38:21;;;;;;;7.78;2.65;;;24.90;99.90;;;;;;4994765;28;20403;-71
2021/12/26 02:40:51;;;;;;;14.30;3.53;;;24.60;99.90;;;;;;4994531;28;20030;-71
2021/12/26 02:43:21;;;;;;;7.85;2.67;;;24.50;99.90;;;;;;4994682;28;20070;-71
2021/12/26 02:45:49;;;;;;;7.75;2.90;;;24.30;99.90;;;;;;4994266;28;20038;-71
2021/12/26 02:48:18;;;;;;;9.10;2.00;;;24.20;99.90;;;;;;4996460;28;20058;-71
2021/12/26 02:50:47;;;;;;;7.75;3.03;;;24.20;99.90;;;;;;4996031;28;20438;-71
2021/12/26 02:53:20;;;;;;;8.95;2.13;;;24.30;99.90;;;;;;4997307;28;20029;-71
2021/12/26 02:55:50;;;;;;;7.00;2.40;;;24.40;99.90;;;;;;4997054;28;20026;-71
2021/12/26 02:58:18;;;;;;;12.07;2.72;;;24.50;99.90;;;;;;4997136;28;20442;-71
2021/12/26 03:00:57;;;;;;;7.45;2.42;;;24.40;99.90;;;;;;4997235;28;20026;-71
2021/12/26 03:03:24;;;;;;;6.00;2.10;;;24.40;99.90;;;;;;4997044;28;20033;-71
2021/12/26 03:06:06;;;;;;;7.82;2.50;;;24.50;99.90;;;;;;4996758;28;20039;-71
2021/12/26 03:08:34;;;;;;;6.43;2.30;;;24.70;99.90;;;;;;4995893;28;20502;-71
2021/12/26 03:11:02;;;;;;;7.57;2.38;;;24.90;99.90;;;;;;4997161;28;20357;-71
2021/12/26 03:13:31;;;;;;;8.07;2.60;;;24.80;99.90;;;;;;4996751;28;20394;-71
2021/12/26 03:15:59;;;;;;;8.98;2.28;;;24.90;99.90;;;;;;4996813;28;20034;-71
2021/12/26 03:18:27;;;;;;;5.78;1.95;;;24.60;99.90;;;;;;4996821;28;20037;-71
2021/12/26 03:20:55;;;;;;;9.68;2.40;;;24.30;99.90;;;;;;4996903;28;20030;-71
2021/12/26 03:23:25;;;;;;;6.82;2.42;;;24.00;99.90;;;;;;4996840;28;20129;-72
2021/12/26 03:26:01;;;;;;;6.30;2.55;;;23.90;99.90;;;;;;4996400;28;20558;-71
2021/12/26 03:28:30;;;;;;;6.45;2.65;;;23.60;99.90;;;;;;4996649;28;20109;-71
2021/12/26 03:31:00;;;;;;;12.13;2.60;;;23.50;99.90;;;;;;4995608;28;20049;-71
2021/12/26 03:33:28;;;;;;;10.93;2.67;;;23.60;99.90;;;;;;4995391;28;20368;-71
2021/12/26 03:35:56;;;;;;;8.15;2.60;;;23.50;99.90;;;;;;4996402;28;20109;-71
2021/12/26 03:38:25;;;;;;;5.80;2.17;;;23.50;99.90;;;;;;4996571;28;20033;-71
2021/12/26 03:40:55;;;;;;;12.38;3.17;;;23.50;99.90;;;;;;4996435;28;20491;-71
2021/12/26 03:43:24;;;;;;;6.95;2.10;;;23.50;99.90;;;;;;4996339;28;20064;-71
2021/12/26 03:45:53;;;;;;;7.65;2.83;;;23.50;99.90;;;;;;4996112;28;20033;-70
2021/12/26 03:48:23;;;;;;;10.95;2.67;;;23.40;99.90;;;;;;4996340;28;20018;-71
2021/12/26 03:50:53;;;;;;;15.75;3.50;;;23.40;99.90;;;;;;4996254;28;20440;-71
2021/12/26 03:53:21;;;;;;;9.15;2.78;;;23.30;99.90;;;;;;4996102;28;20382;-71
2021/12/26 03:55:50;;;;;;;6.55;2.70;;;23.40;99.90;;;;;;4996105;28;20026;-71
2021/12/26 03:58:18;;;;;;;6.78;2.83;;;23.40;99.90;;;;;;4995871;28;20042;-72
2021/12/26 04:00:48;;;;;;;6.28;2.40;;;23.40;99.90;;;;;;4996081;28;20026;-71
2021/12/26 04:03:17;;;;;;;10.68;3.15;;;23.30;99.90;;;;;;4996035;28;20062;-71
2021/12/26 04:05:44;;;;;;;11.20;2.88;;;23.30;99.90;;;;;;4995662;28;20120;-70
2021/12/26 04:08:12;;;;;;;5.63;2.22;;;23.10;99.90;;;;;;4996019;28;20026;-70
2021/12/26 04:10:40;;;;;;;7.60;3.05;;;23.00;99.90;;;;;;4995826;28;20080;-71
2021/12/26 04:13:08;;;;;;;10.40;2.83;;;23.00;99.90;;;;;;4976149;28;20109;-70
2021/12/26 04:15:35;;;;;;;9.35;3.05;;;22.90;99.90;;;;;;4975523;28;20123;-70
2021/12/26 04:18:04;;;;;;;14.00;2.88;;;22.80;99.90;;;;;;4975704;28;20046;-70
2021/12/26 04:20:31;;;;;;;10.90;2.65;;;22.70;99.90;;;;;;4976272;28;20376;-70
2021/12/26 04:23:00;;;;;;;10.30;2.15;;;22.70;99.90;;;;;;4976218;28;20050;-70
2021/12/26 04:25:28;;;;;;;10.57;3.13;;;22.60;99.90;;;;;;4975752;28;20049;-71
2021/12/26 04:27:56;;;;;;;14.60;4.05;;;22.50;99.90;;;;;;5002082;28;20022;-70
2021/12/26 04:30:24;;;;;;;8.80;2.13;;;22.30;99.90;;;;;;5004197;28;20022;-70
2021/12/26 04:32:52;;;;;;;9.27;2.95;;;22.30;99.90;;;;;;5005616;28;20541;-71
2021/12/26 04:35:21;;;;;;;13.35;4.53;;;22.40;99.90;;;;;;5004658;28;20025;-70
2021/12/26 04:37:49;;;;;;;6.53;2.80;;;22.30;99.90;;;;;;5003531;28;20030;-71
2021/12/26 04:40:18;;;;;;;8.73;2.88;;;22.30;99.90;;;;;;5004972;28;20393;-71
2021/12/26 04:42:47;;;;;;;8.05;3.00;;;22.20;99.90;;;;;;5004954;28;20049;-70
2021/12/26 04:45:18;;;;;;;10.30;2.53;;;22.20;99.90;;;;;;5001857;28;20053;-70
2021/12/26 04:47:46;;;;;;;9.10;3.25;;;22.20;99.90;;;;;;5003662;28;20018;-71
2021/12/26 04:50:19;;;;;;;11.93;2.97;;;22.30;99.90;;;;;;5000466;28;20025;-71
2021/12/26 04:52:48;;;;;;;7.75;2.78;;;22.30;99.90;;;;;;5002378;28;20534;-71
2021/12/26 04:55:20;;;;;;;14.10;3.10;;;22.40;99.90;;;;;;5001294;28;20491;-71
2021/12/26 04:57:49;;;;;;;15.50;4.07;;;22.40;99.90;;;;;;5003365;28;20045;-71
2021/12/26 05:00:19;;;;;;;16.10;4.53;;;22.60;99.90;;;;;;5008548;28;20021;-70
2021/12/26 05:02:48;;;;;;;10.43;3.75;;;22.90;99.90;;;;;;5014525;28;20415;-71
2021/12/26 05:05:16;;;;;;;12.50;3.50;;;23.20;99.90;;;;;;5013870;28;20037;-71
2021/12/26 05:07:44;;;;;;;13.50;3.63;;;23.20;99.90;;;;;;5014357;28;20058;-71
2021/12/26 05:10:14;;;;;;;15.27;3.92;;;23.30;99.90;;;;;;5014176;28;20049;-71
2021/12/26 05:12:42;;;;;;;14.55;3.53;;;23.40;99.90;;;;;;5014213;28;20437;-70
2021/12/26 05:15:11;;;;;;;18.08;3.83;;;23.30;99.90;;;;;;5014206;28;20021;-71
2021/12/26 05:17:43;;;;;;;15.15;4.30;;;23.00;99.90;;;;;;5014241;28;20029;-71
2021/12/26 05:20:12;;;;;;;11.45;3.88;;;22.90;99.90;;;;;;5014039;28;20026;-71
2021/12/26 05:22:40;;;;;;;10.65;3.50;;;22.80;99.90;;;;;;5013937;28;20018;-71
2021/12/26 05:25:09;;;;;;;10.65;3.80;;;22.80;99.90;;;;;;5013643;28;20022;-71
2021/12/26 05:27:37;;;;;;;15.80;4.35;;;22.80;99.90;;;;;;5014174;28;20044;-71
2021/12/26 05:30:09;;;;;;;12.90;4.32;;;22.90;99.90;;;;;;5013879;28;20088;-71
2021/12/26 05:32:37;;;;;;;16.10;3.13;;;23.00;99.90;;;;;;5008075;28;20486;-71
2021/12/26 05:35:05;;;;;;;13.98;4.53;;;22.90;99.90;;;;;;5002229;28;20136;-71
2021/12/26 05:37:32;;;;;;;22.00;4.88;;;22.90;99.90;;;;;;5003749;28;20108;-71
2021/12/26 05:40:02;;;;;;;21.45;3.85;;;22.90;99.90;;;;;;5004264;28;20022;-71
2021/12/26 05:42:31;;;;;;;21.95;4.82;;;22.80;99.90;;;;;;4999675;28;20025;-71
2021/12/26 05:44:59;;;;;;;14.60;4.32;;;22.70;99.90;;;;;;5002270;28;20501;-71
2021/12/26 05:47:27;;;;;;;14.40;4.22;;;22.70;99.90;;;;;;4999726;28;20023;-70
2021/12/26 05:49:55;;;;;;;13.98;4.28;;;22.70;99.90;;;;;;5003411;28;20014;-71
2021/12/26 05:52:23;;;;;;;16.52;4.53;;;22.70;99.90;;;;;;5004349;28;20112;-72
2021/12/26 05:54:51;;;;;;;14.32;4.35;;;22.80;99.90;;;;;;4998502;28;20037;-71
2021/12/26 05:57:19;;;;;;;19.52;4.03;;;22.70;99.90;;;;;;4994203;28;20041;-71
2021/12/26 05:59:47;;;;;;;18.85;5.07;;;22.70;99.90;;;;;;4994226;28;20419;-70
2021/12/26 06:02:15;;;;;;;19.33;4.38;;;22.70;99.90;;;;;;4994111;28;20030;-71
2021/12/26 06:04:42;;;;;;;14.77;5.03;;;22.70;99.90;;;;;;4993805;28;20057;-71
2021/12/26 06:07:10;;;;;;;12.98;4.22;;;22.70;99.90;;;;;;4994128;28;20037;-71
2021/12/26 06:09:38;;;;;;;22.25;5.72;;;22.60;99.90;;;;;;4993835;28;20030;-71
2021/12/26 06:12:06;;;;;;;16.00;4.70;;;22.70;99.90;;;;;;4994122;28;20045;-70
2021/12/26 06:14:34;;;;;;;20.20;5.47;;;22.70;99.90;;;;;;4993976;28;20479;-70
2021/12/26 06:17:02;;;;;;;18.42;5.18;;;22.70;99.90;;;;;;4993847;28;20038;-71
2021/12/26 06:19:30;;;;;;;31.17;5.10;;;22.60;99.90;;;;;;4993976;28;20022;-71
2021/12/26 06:21:57;;;;;;;17.35;5.07;;;22.50;99.90;;;;;;4993025;28;20027;-71
2021/12/26 06:24:26;;;;;;;16.58;4.65;;;22.40;99.90;;;;;;4992787;28;20034;-71
2021/12/26 06:26:53;;;;;;;23.23;6.40;;;22.40;99.90;;;;;;4983346;28;20038;-71
2021/12/26 06:29:21;;;;;;;21.23;5.57;;;22.20;99.90;;;;;;4992356;28;20037;-71
2021/12/26 06:31:49;;;;;;;23.25;5.72;;;22.20;99.90;;;;;;4991206;28;20411;-71
2021/12/26 06:34:17;;;;;;;22.77;5.45;;;22.10;99.90;;;;;;4992778;28;20463;-70
2021/12/26 06:36:44;;;;;;;19.67;5.50;;;21.90;99.90;;;;;;4992830;28;20482;-71
2021/12/26 06:39:12;;;;;;;16.30;5.90;;;21.80;99.90;;;;;;4977091;28;20018;-70
2021/12/26 06:41:40;;;;;;;19.90;5.32;;;21.70;99.90;;;;;;4972580;28;20089;-71
2021/12/26 06:44:08;;;;;;;12.85;4.70;;;21.50;99.90;;;;;;4973406;28;20034;-71
2021/12/26 06:46:36;;;;;;;19.35;5.57;;;21.40;99.90;;;;;;4972758;28;20035;-71
2021/12/26 06:49:05;;;;;;;12.48;3.88;;;21.30;99.90;;;;;;4974960;28;20045;-71
2021/12/26 06:51:33;;;;;;;7.68;3.17;;;21.10;99.90;;;;;;4992704;28;20438;-70
2021/12/26 06:54:01;;;;;;;10.23;3.47;;;21.10;99.90;;;;;;4992685;28;20014;-69
2021/12/26 06:56:29;;;;;;;7.82;3.50;;;21.00;99.90;;;;;;4992800;28;20069;-71
2021/12/26 06:58:56;;;;;;;11.98;3.53;;;21.00;99.90;;;;;;4992457;28;20053;-71
2021/12/26 07:01:24;;;;;;;8.43;3.35;;;20.80;99.90;;;;;;4973554;28;20023;-71
2021/12/26 07:03:53;;;;;;;9.13;3.10;;;20.70;99.90;;;;;;4973406;28;20026;-71
2021/12/26 07:06:21;;;;;;;9.65;3.25;;;20.50;99.90;;;;;;4975284;28;20402;-70
2021/12/26 07:08:49;;;;;;;9.40;3.63;;;20.40;99.90;;;;;;4976740;28;20023;-71
2021/12/26 07:11:18;;;;;;;8.27;3.33;;;20.30;99.90;;;;;;4976175;28;20405;-70
2021/12/26 07:13:45;;;;;;;5.47;2.45;;;20.10;99.90;;;;;;4976588;28;20014;-71
2021/12/26 07:16:13;;;;;;;4.45;2.08;;;20.10;99.90;;;;;;4994262;28;20022;-70
2021/12/26 07:18:41;;;;;;;6.25;2.20;;;20.00;99.90;;;;;;4986060;28;20510;-71
2021/12/26 07:21:08;;;;;;;5.20;1.75;;;19.90;99.90;;;;;;4976491;28;20027;-72
2021/12/26 07:23:36;;;;;;;3.83;1.90;;;19.80;99.90;;;;;;4976028;28;20461;-71
2021/12/26 07:26:04;;;;;;;2.95;1.63;;;19.80;99.90;;;;;;4975641;28;20518;-69
2021/12/26 07:28:32;;;;;;;6.60;1.85;;;19.80;99.90;;;;;;4975966;28;20031;-68
2021/12/26 07:31:00;;;;;;;4.53;1.40;;;19.80;99.90;;;;;;4976373;28;20368;-71
2021/12/26 07:33:28;;;;;;;5.50;1.77;;;19.80;99.90;;;;;;4976978;28;20033;-70
2021/12/26 07:35:56;;;;;;;9.05;1.75;;;19.80;99.90;;;;;;4976774;28;20033;-68
2021/12/26 07:38:23;;;;;;;2.35;1.45;;;19.90;99.90;;;;;;4980472;28;20018;-68
2021/12/26 07:40:51;;;;;;;8.32;1.55;;;19.90;99.90;;;;;;4994929;28;20046;-69
2021/12/26 07:43:19;;;;;;;4.25;1.08;;;19.90;99.90;;;;;;4996226;28;20031;-69
2021/12/26 07:45:47;;;;;;;1.95;0.80;;;20.00;99.90;;;;;;4976097;28;20044;-68
2021/12/26 07:48:14;;;;;;;7.30;1.08;;;19.90;99.90;;;;;;4976338;28;20027;-67
2021/12/26 07:50:42;;;;;;;3.45;1.15;;;20.00;99.90;;;;;;4974654;28;20475;-66
2021/12/26 07:53:11;;;;;;;3.90;1.00;;;20.00;99.90;;;;;;4975378;28;20026;-70
2021/12/26 07:55:39;;;;;;;5.47;0.82;;;19.90;99.90;;;;;;4975076;28;20027;-69
2021/12/26 07:58:07;;;;;;;11.48;1.83;;;19.80;99.90;;;;;;4995753;28;20029;-68
2021/12/26 08:00:35;;;;;;;6.05;1.15;;;19.70;99.90;;;;;;4995545;28;20034;-67
2021/12/26 08:03:03;;;;;;;5.15;1.15;;;19.70;99.90;;;;;;4995793;28;20118;-67
2021/12/26 08:05:31;;;;;;;8.32;1.20;;;19.60;99.90;;;;;;4995108;28;20018;-67
2021/12/26 08:07:59;;;;;;;3.80;1.60;;;19.50;99.90;;;;;;4995922;28;20034;-67
2021/12/26 08:10:27;;;;;;;4.38;1.67;;;19.50;99.90;;;;;;4995513;28;20591;-67
2021/12/26 08:12:55;;;;;;;6.28;1.63;;;19.40;99.90;;;;;;4994636;28;20034;-66
2021/12/26 08:15:23;;;;;;;7.93;1.75;;;19.40;99.90;;;;;;4990464;28;20072;-66
2021/12/26 08:17:51;;;;;;;9.40;1.90;;;19.40;99.90;;;;;;4987430;28;20033;-67
2021/12/26 08:20:18;;;;;;;5.10;1.40;;;19.40;99.90;;;;;;4995285;28;20088;-67
2021/12/26 08:22:46;;;;;;;3.80;1.27;;;19.30;99.90;;;;;;4995450;28;20069;-68
2021/12/26 08:25:14;;;;;;;4.32;1.45;;;19.30;99.90;;;;;;4995047;28;20097;-67
2021/12/26 08:27:42;;;;;;;8.77;2.10;;;19.40;99.90;;;;;;4995605;28;20109;-67
2021/12/26 08:30:10;;;;;;;8.15;2.25;;;19.30;99.90;;;;;;4995042;28;20018;-67
2021/12/26 08:32:40;;;;;;;5.05;2.15;;;19.30;99.90;;;;;;4995008;28;20030;-66
2021/12/26 08:35:08;;;;;;;4.22;1.35;;;19.30;99.90;;;;;;4995194;28;20432;-68
2021/12/26 08:37:38;;;;;;;5.13;1.08;;;19.30;99.90;;;;;;4995181;28;20030;-66
2021/12/26 08:40:07;;;;;;;6.65;1.70;;;19.30;99.90;;;;;;4994973;28;20034;-68
2021/12/26 08:42:35;;;;;;;6.78;1.35;;;19.20;99.90;;;;;;4994419;28;20031;-68
2021/12/26 08:45:03;;;;;;;4.78;1.20;;;19.20;99.90;;;;;;4993837;28;20035;-67
2021/12/26 08:47:31;;;;;;;5.15;1.13;;;19.20;99.90;;;;;;4994097;28;20019;-67
2021/12/26 08:49:58;;;;;;;7.32;1.58;;;19.10;99.90;;;;;;4994124;28;20041;-67
2021/12/26 08:52:26;;;;;;;6.57;1.15;;;19.10;99.90;;;;;;4994146;28;20641;-68
2021/12/26 08:54:54;;;;;;;5.30;1.20;;;19.10;99.90;;;;;;4994209;28;20092;-67
2021/12/26 08:57:22;;;;;;;3.08;1.05;;;19.10;99.90;;;;;;4994463;28;20026;-68
2021/12/26 08:59:49;;;;;;;4.82;1.50;;;19.10;99.90;;;;;;4993711;28;20431;-68
2021/12/26 09:02:17;;;;;;;9.95;1.80;;;19.10;99.90;;;;;;4994417;28;20368;-68
2021/12/26 09:04:45;;;;;;;3.13;1.15;;;19.10;99.90;;;;;;4994708;28;20030;-67
2021/12/26 09:07:13;;;;;;;5.47;1.30;;;19.10;99.90;;;;;;4994913;28;20101;-67
2021/12/26 09:09:42;;;;;;;4.07;1.20;;;19.10;99.90;;;;;;4994704;28;20022;-68
2021/12/26 09:12:12;;;;;;;11.48;1.40;;;19.10;99.90;;;;;;4996824;28;20026;-70
2021/12/26 09:14:40;;;;;;;10.40;1.63;;;19.10;99.90;;;;;;5000163;28;20022;-69
2021/12/26 09:17:09;;;;;;;9.80;1.58;;;19.10;99.90;;;;;;5002602;28;20032;-69
2021/12/26 09:19:37;;;;;;;8.05;1.30;;;19.10;99.90;;;;;;5004816;28;20470;-67
2021/12/26 09:22:08;;;;;;;8.52;1.77;;;19.10;99.90;;;;;;5003613;28;20429;-68
2021/12/26 09:24:38;;;;;;;6.50;1.50;;;19.10;99.90;;;;;;5002788;28;20097;-70
2021/12/26 09:27:06;;;;;;;9.85;1.13;;;19.10;99.90;;;;;;5003448;28;20057;-68
2021/12/26 09:29:34;;;;;;;10.57;2.10;;;19.10;99.90;;;;;;4998670;28;20498;-68
2021/12/26 09:32:02;;;;;;;5.05;1.30;;;19.10;99.90;;;;;;4993469;28;20038;-68
2021/12/26 09:34:33;;;;;;;5.05;1.15;;;19.10;99.90;;;;;;4992958;28;20089;-68
2021/12/26 09:37:03;;;;;;;4.20;0.98;;;19.00;99.90;;;;;;4994637;28;20026;-68
2021/12/26 09:39:31;;;;;;;6.78;1.27;;;19.00;99.90;;;;;;5002790;28;20037;-67
2021/12/26 09:41:58;;;;;;;9.65;1.98;;;19.00;99.90;;;;;;5002658;28;20118;-67
2021/12/26 09:44:26;;;;;;;6.57;1.30;;;19.10;99.90;;;;;;5003578;28;20037;-68
2021/12/26 09:46:54;;;;;;;7.20;2.10;;;19.10;99.90;;;;;;5003002;28;20049;-68
2021/12/26 09:49:23;;;;;;;9.07;2.45;;;19.10;99.90;;;;;;4999906;28;20495;-67
2021/12/26 09:51:52;;;;;;;8.40;1.23;;;19.10;99.90;;;;;;4985002;28;20122;-68
2021/12/26 09:54:20;;;;;;;10.35;1.85;;;19.10;99.90;;;;;;5002081;28;20058;-68
2021/12/26 09:56:48;;;;;;;7.03;1.70;;;19.20;99.90;;;;;;5002136;28;20033;-68
2021/12/26 09:59:22;;;;;;;11.77;2.22;;;19.10;99.90;;;;;;5004350;28;20101;-68
2021/12/26 10:01:53;;;;;;;7.45;1.58;;;19.10;99.90;;;;;;5000497;28;20030;-67
2021/12/26 10:04:29;;;;;;;10.25;2.50;;;19.10;99.90;;;;;;5010244;28;20022;-68
2021/12/26 10:07:04;;;;;;;5.82;1.67;;;19.10;99.90;;;;;;5013378;28;20115;-67
2021/12/26 10:09:32;;;;;;;9.75;2.00;;;19.10;99.90;;;;;;5013265;28;20029;-68
2021/12/26 10:12:01;;;;;;;8.63;1.80;;;19.10;99.90;;;;;;5006529;28;20057;-67
2021/12/26 10:14:33;;;;;;;12.60;2.00;;;19.10;99.90;;;;;;5003706;28;20027;-67
2021/12/26 10:17:07;;;;;;;9.23;2.08;;;19.10;99.90;;;;;;5005708;28;20045;-68
2021/12/26 10:19:48;;;;;;;4.38;1.40;;;19.10;99.90;;;;;;5013626;28;20026;-67
2021/12/26 10:22:21;;;;;;;12.80;1.65;;;19.10;99.90;;;;;;5013584;28;20140;-68
2021/12/26 10:24:50;;;;;;;4.22;1.17;;;19.10;99.90;;;;;;5013137;28;20041;-68
2021/12/26 10:27:27;;;;;;;10.48;2.38;;;19.00;99.90;;;;;;5013220;28;20144;-68
2021/12/26 10:29:57;;;;;;;7.22;1.30;;;19.10;99.90;;;;;;5013255;28;20037;-68
2021/12/26 10:32:41;;;;;;;5.60;1.48;;;19.00;99.90;;;;;;5013446;28;20092;-68
2021/12/26 10:35:18;;;;;;;7.78;1.70;;;19.10;99.90;;;;;;5012784;28;20129;-67
2021/12/26 10:37:51;;;;;;;10.30;1.70;;;19.10;99.90;;;;;;5012802;28;20026;-68
2021/12/26 10:40:25;;;;;;;7.78;1.60;;;19.10;99.90;;;;;;5013980;28;20026;-68
2021/12/26 10:42:58;;;;;;;4.78;1.25;;;19.00;99.90;;;;;;5017168;28;20037;-68
2021/12/26 10:45:31;;;;;;;3.95;0.82;;;18.90;99.90;;;;;;5016434;28;20030;-68
2021/12/26 10:48:03;;;;;;;5.40;1.20;;;18.90;99.90;;;;;;5017028;28;20030;-68
2021/12/26 10:50:33;;;;;;;4.95;1.33;;;18.90;99.90;;;;;;5017080;28;20048;-68
2021/12/26 10:53:06;;;;;;;9.30;1.42;;;18.90;99.90;;;;;;5017071;28;20032;-67
2021/12/26 10:55:43;;;;;;;7.15;1.27;;;18.90;99.90;;;;;;5016232;28;20081;-68
2021/12/26 10:58:13;;;;;;;4.15;0.95;;;18.90;99.90;;;;;;5016378;28;20474;-68
2021/12/26 11:00:44;;;;;;;8.00;1.00;;;18.90;99.90;;;;;;5016896;28;20439;-67
2021/12/26 11:03:20;;;;;;;6.40;1.27;;;18.90;99.90;;;;;;5016661;28;20552;-68
2021/12/26 11:05:49;;;;;;;5.75;1.10;;;19.00;99.90;;;;;;5015578;28;20041;-68
2021/12/26 11:08:24;;;;;;;4.78;1.75;;;18.90;99.90;;;;;;5016075;28;20497;-68
2021/12/26 11:10:54;;;;;;;4.85;1.13;;;19.00;99.90;;;;;;5016603;28;20414;-67
2021/12/26 11:13:30;;;;;;;9.07;1.67;;;19.00;99.90;;;;;;5016423;28;20426;-67
2021/12/26 11:16:07;;;;;;;5.30;1.65;;;19.10;99.90;;;;;;5016036;28;20048;-67
2021/12/26 11:18:36;;;;;;;10.25;1.75;;;19.00;99.90;;;;;;5015886;28;20033;-67
2021/12/26 11:21:13;;;;;;;7.70;1.45;;;19.10;99.90;;;;;;5016520;28;20030;-66
2021/12/26 11:23:43;;;;;;;7.13;1.60;;;19.00;99.90;;;;;;5016653;28;20348;-67
2021/12/26 11:26:15;;;;;;;6.65;1.75;;;19.00;99.90;;;;;;5012851;28;20042;-68
2021/12/26 11:28:49;;;;;;;6.35;2.03;;;19.00;99.90;;;;;;5002888;28;20069;-68
2021/12/26 11:31:20;;;;;;;6.90;1.88;;;18.90;99.90;;;;;;5004698;28;20081;-68
2021/12/26 11:33:54;;;;;;;7.78;2.33;;;18.80;99.90;;;;;;5005428;28;20485;-68
2021/12/26 11:36:23;;;;;;;4.70;1.67;;;18.80;99.90;;;;;;5002004;28;20030;-67
2021/12/26 11:38:53;;;;;;;7.13;1.58;;;18.60;99.90;;;;;;5005498;28;20076;-67
2021/12/26 11:41:47;;;;;;;9.32;2.22;;;18.50;99.90;;;;;;5006722;28;20024;-67
2021/12/26 11:44:51;;;;;;;11.45;2.00;;;18.30;99.90;;;;;;5005898;28;20438;-67
2021/12/26 11:47:56;;;;;;;10.02;2.00;;;18.10;99.90;;;;;;5003843;28;20038;-67
2021/12/26 11:51:02;;;;;;;9.30;2.30;;;18.10;99.90;;;;;;4990052;28;20042;-68
2021/12/26 11:53:52;;;;;;;12.55;2.53;;;18.00;99.90;;;;;;5003437;28;20022;-67
2021/12/26 11:56:30;;;;;;;11.00;2.28;;;17.90;99.90;;;;;;5006001;28;20018;-68
2021/12/26 11:59:16;;;;;;;6.50;2.25;;;18.00;99.90;;;;;;5005972;28;20533;-66
2021/12/26 12:01:48;;;;;;;14.70;3.28;;;17.90;99.90;;;;;;5002700;28;20054;-67
2021/12/26 12:04:22;;;;;;;7.45;2.35;;;17.90;99.90;;;;;;5004250;28;20034;-67
2021/12/26 12:06:54;;;;;;;9.23;2.35;;;17.90;99.90;;;;;;5005491;28;20029;-68
2021/12/26 12:09:28;;;;;;;10.77;2.70;;;17.90;99.90;;;;;;4994979;28;20483;-68
2021/12/26 12:12:13;;;;;;;10.43;2.67;;;17.80;99.90;;;;;;4997310;28;20394;-68
2021/12/26 12:15:00;;;;;;;9.82;1.85;;;17.70;99.90;;;;;;5012404;28;20534;-68
2021/12/26 12:17:31;;;;;;;7.93;2.20;;;17.70;99.90;;;;;;5009272;28;20036;-68
2021/12/26 12:20:08;;;;;;;9.13;2.38;;;17.80;99.90;;;;;;5006021;28;20417;-68
2021/12/26 12:22:38;;;;;;;7.18;1.75;;;17.70;99.90;;;;;;5005971;28;20113;-68
2021/12/26 12:25:38;;;;;;;11.85;1.83;;;17.70;99.90;;;;;;5004165;28;20022;-68
2021/12/26 12:28:16;;;;;;;10.95;1.30;;;17.70;99.90;;;;;;5002431;28;20065;-68
2021/12/26 12:30:46;;;;;;;6.40;2.17;;;17.70;99.90;;;;;;5002017;28;20022;-69
2021/12/26 12:33:30;;;;;;;11.23;2.53;;;17.70;99.90;;;;;;5004192;28;20092;-69
2021/12/26 12:36:29;;;;;;;5.30;1.63;;;17.70;99.90;;;;;;5005079;28;20552;-67
2021/12/26 12:39:16;;;;;;;9.88;2.35;;;17.70;99.90;;;;;;4998334;28;20076;-68
2021/12/26 12:41:50;;;;;;;6.07;1.58;;;17.70;99.90;;;;;;5001843;28;20038;-69
2021/12/26 12:44:30;;;;;;;5.97;1.90;;;17.60;99.90;;;;;;5002158;28;20382;-67
2021/12/26 12:47:01;;;;;;;7.60;1.83;;;17.50;99.90;;;;;;5003228;28;20062;-67
2021/12/26 12:49:48;;;;;;;8.35;2.58;;;17.60;99.90;;;;;;5004602;28;20105;-69
2021/12/26 12:52:38;;;;;;;8.60;1.92;;;17.60;99.90;;;;;;5004769;28;20386;-68
2021/12/26 12:55:20;;;;;;;4.95;1.70;;;17.60;99.90;;;;;;5001779;28;20097;-69
2021/12/26 12:57:51;;;;;;;8.60;2.33;;;17.60;99.90;;;;;;5002668;28;20352;-68
2021/12/26 13:00:25;;;;;;;13.32;2.10;;;17.50;99.90;;;;;;5003294;28;20022;-68
2021/12/26 13:02:55;;;;;;;6.28;2.08;;;17.50;99.90;;;;;;5003049;28;20109;-67
2021/12/26 13:05:29;;;;;;;8.70;1.73;;;17.50;99.90;;;;;;4999664;28;20153;-69
2021/12/26 13:08:07;;;;;;;6.18;1.40;;;17.50;99.90;;;;;;5003169;28;20018;-69
2021/12/26 13:10:36;;;;;;;13.27;2.40;;;17.50;99.90;;;;;;5003308;28;20018;-69
2021/12/26 13:13:15;;;;;;;8.27;1.90;;;17.50;99.90;;;;;;5004815;28;20508;-68
2021/12/26 13:16:03;;;;;;;10.10;2.58;;;17.40;99.90;;;;;;5000370;28;20097;-69
2021/12/26 13:18:34;;;;;;;8.10;2.33;;;17.50;99.90;;;;;;5002364;28;20023;-68
2021/12/26 13:21:05;;;;;;;8.85;1.60;;;17.50;99.90;;;;;;5000484;28;20356;-68
2021/12/26 13:23:35;;;;;;;8.32;2.20;;;17.50;99.90;;;;;;5003286;28;20025;-68
2021/12/26 13:26:08;;;;;;;8.30;2.13;;;17.50;99.90;;;;;;4999901;28;20491;-68
2021/12/26 13:28:37;;;;;;;11.57;1.73;;;17.50;99.90;;;;;;5002830;28;20030;-68